Time;durP1;ratioP1;P1;durP2;ratioP2;P2;SDS_P1;SDS_P2;PMS_P1;PMS_P2;Temp;Humidity;BMP_temperature;BMP_pressure;BME280_temperature;BME280_humidity;BME280_pressure;Samples;Min_cycle;Max_cycle;Signal;HPM_P1;HPM_P2
2022/11/21 00:00:03;;;;;;;28.25;16.52;;;5.90;78.30;;;;;;5075378;28;20052;-17
2022/11/21 00:02:30;;;;;;;26.33;16.80;;;5.90;78.20;;;;;;5075935;28;20029;-18
2022/11/21 00:04:56;;;;;;;24.35;15.77;;;5.90;78.30;;;;;;5075393;28;20043;-18
2022/11/21 00:07:21;;;;;;;20.05;13.45;;;6.00;78.40;;;;;;5075913;28;20021;-19
2022/11/21 00:09:47;;;;;;;19.20;12.55;;;6.00;78.50;;;;;;5074470;28;20028;-18
2022/11/21 00:12:15;;;;;;;18.15;11.23;;;6.10;78.60;;;;;;5074039;28;20496;-17
2022/11/21 00:14:41;;;;;;;15.23;10.05;;;6.10;78.30;;;;;;5075507;28;20021;-19
2022/11/21 00:17:07;;;;;;;17.75;11.23;;;6.20;78.30;;;;;;5074963;28;20400;-18
2022/11/21 00:19:33;;;;;;;23.00;14.40;;;6.20;78.60;;;;;;5075060;28;20031;-18
2022/11/21 00:21:59;;;;;;;22.90;14.15;;;6.20;78.40;;;;;;5075412;28;20028;-19
2022/11/21 00:24:25;;;;;;;18.48;11.35;;;6.20;78.20;;;;;;5075027;28;20090;-19
2022/11/21 00:26:51;;;;;;;17.80;10.77;;;6.20;78.30;;;;;;5073587;28;20024;-20
2022/11/21 00:29:17;;;;;;;15.25;10.23;;;6.10;78.40;;;;;;5074919;28;20029;-17
2022/11/21 00:31:42;;;;;;;19.27;10.93;;;6.10;78.40;;;;;;5073596;28;20029;-18
2022/11/21 00:34:09;;;;;;;15.57;10.02;;;6.10;78.50;;;;;;5075000;28;20041;-19
2022/11/21 00:36:35;;;;;;;18.20;11.48;;;6.10;78.40;;;;;;5074895;28;20035;-17
2022/11/21 00:39:00;;;;;;;19.45;12.20;;;6.10;78.30;;;;;;5074572;28;20020;-18
2022/11/21 00:41:26;;;;;;;19.13;12.75;;;6.00;78.50;;;;;;5074976;28;20028;-19
2022/11/21 00:43:52;;;;;;;19.42;13.30;;;6.00;78.50;;;;;;5074932;28;20111;-18
2022/11/21 00:46:18;;;;;;;21.85;12.15;;;6.10;78.50;;;;;;5074552;28;20476;-18
2022/11/21 00:48:44;;;;;;;18.15;10.65;;;6.10;78.60;;;;;;5074746;28;20028;-18
2022/11/21 00:51:10;;;;;;;17.63;10.75;;;6.10;78.60;;;;;;5073089;28;20491;-17
2022/11/21 00:53:36;;;;;;;17.15;10.07;;;6.20;78.60;;;;;;5074587;28;20471;-19
2022/11/21 00:56:02;;;;;;;18.13;10.85;;;6.20;78.60;;;;;;5074375;28;20045;-19
2022/11/21 00:58:28;;;;;;;16.60;10.50;;;6.30;78.70;;;;;;5074339;28;20097;-20
2022/11/21 01:01:05;;;;;;;17.38;10.25;;;6.40;78.40;;;;;;5074327;28;20033;-16
2022/11/21 01:03:33;;;;;;;17.50;10.77;;;6.40;78.30;;;;;;5074503;28;20033;-19
2022/11/21 01:06:04;;;;;;;19.17;12.10;;;6.50;78.30;;;;;;5072947;28;20484;-18
2022/11/21 01:08:30;;;;;;;16.27;11.05;;;6.50;78.30;;;;;;5074305;28;20017;-18
2022/11/21 01:11:00;;;;;;;20.15;11.68;;;6.60;78.20;;;;;;5074227;28;20016;-18
2022/11/21 01:13:26;;;;;;;19.33;12.57;;;6.60;78.20;;;;;;5074279;28;20039;-18
2022/11/21 01:15:52;;;;;;;18.88;12.13;;;6.70;78.10;;;;;;5074012;28;20396;-18
2022/11/21 01:18:18;;;;;;;16.75;10.27;;;6.70;78.00;;;;;;5074102;28;20032;-16
2022/11/21 01:20:44;;;;;;;15.80;9.77;;;6.70;78.10;;;;;;5073720;28;20498;-18
2022/11/21 01:23:10;;;;;;;17.20;10.18;;;6.70;78.20;;;;;;5073645;28;20017;-19
2022/11/21 01:25:36;;;;;;;16.17;10.30;;;6.80;78.00;;;;;;5073913;28;20021;-18
2022/11/21 01:28:02;;;;;;;18.75;11.77;;;6.80;78.20;;;;;;5074385;28;20363;-18
2022/11/21 01:30:28;;;;;;;17.33;11.02;;;6.80;78.20;;;;;;5074071;28;20443;-19
2022/11/21 01:32:53;;;;;;;15.60;10.20;;;6.80;78.00;;;;;;5073597;28;20387;-18
2022/11/21 01:35:19;;;;;;;18.00;11.35;;;6.80;78.00;;;;;;5073946;28;20033;-18
2022/11/21 01:37:49;;;;;;;19.45;12.43;;;6.80;78.10;;;;;;5072357;28;20025;-18
2022/11/21 01:40:15;;;;;;;19.83;12.27;;;6.80;78.30;;;;;;5073533;28;20037;-18
2022/11/21 01:43:09;;;;;;;21.05;12.77;;;6.80;78.10;;;;;;5073846;28;20031;-19
2022/11/21 01:45:56;;;;;;;19.30;12.35;;;6.80;78.10;;;;;;5073545;28;20059;-18
2022/11/21 01:48:34;;;;;;;19.98;11.98;;;6.80;78.10;;;;;;5073706;28;20082;-20
2022/11/21 01:51:08;;;;;;;14.90;9.25;;;6.80;78.20;;;;;;5072039;28;20167;-18
2022/11/21 01:53:37;;;;;;;15.90;9.93;;;6.70;78.50;;;;;;5073362;28;20047;-18
2022/11/21 01:56:04;;;;;;;16.77;10.63;;;6.70;78.50;;;;;;5073683;28;20025;-18
2022/11/21 01:58:33;;;;;;;14.85;9.40;;;6.70;78.50;;;;;;5073297;28;20052;-18
2022/11/21 02:00:59;;;;;;;16.25;9.90;;;6.70;78.40;;;;;;5073196;28;20024;-18
2022/11/21 02:03:30;;;;;;;18.52;11.55;;;6.80;78.50;;;;;;5073474;28;20013;-19
2022/11/21 02:05:57;;;;;;;15.30;9.95;;;6.80;78.40;;;;;;5073589;28;20023;-18
2022/11/21 02:08:25;;;;;;;17.52;9.98;;;6.80;78.30;;;;;;5073214;28;20028;-19
2022/11/21 02:11:14;;;;;;;17.50;11.02;;;6.90;78.30;;;;;;5073171;28;20032;-19
2022/11/21 02:13:40;;;;;;;18.40;10.48;;;6.90;78.20;;;;;;5073072;28;20089;-18
2022/11/21 02:16:08;;;;;;;17.27;11.43;;;6.90;78.20;;;;;;5073065;28;20041;-19
2022/11/21 02:18:34;;;;;;;17.13;11.10;;;6.90;78.20;;;;;;5072944;28;20028;-17
2022/11/21 02:21:12;;;;;;;17.60;11.50;;;6.90;78.20;;;;;;5073197;28;20060;-19
2022/11/21 02:24:20;;;;;;;18.10;11.63;;;6.90;78.20;;;;;;5073324;28;20056;-18
2022/11/21 02:26:47;;;;;;;15.98;10.10;;;6.90;78.20;;;;;;5069678;28;20028;-17
2022/11/21 02:29:14;;;;;;;20.95;11.40;;;6.90;78.20;;;;;;5073174;28;20023;-19
2022/11/21 02:31:40;;;;;;;20.92;12.48;;;6.90;78.30;;;;;;5073565;28;20070;-19
2022/11/21 02:34:06;;;;;;;19.38;12.65;;;6.90;78.30;;;;;;5077025;28;20561;-19
2022/11/21 02:36:36;;;;;;;20.15;11.85;;;6.90;78.30;;;;;;5075890;28;20557;-18
2022/11/21 02:39:04;;;;;;;17.35;10.48;;;6.80;78.30;;;;;;5075898;28;20028;-18
2022/11/21 02:41:34;;;;;;;19.45;12.00;;;6.80;78.30;;;;;;5076960;28;20426;-18
2022/11/21 02:44:10;;;;;;;15.25;9.50;;;6.70;78.40;;;;;;5076930;28;20375;-18
2022/11/21 02:46:44;;;;;;;16.17;9.65;;;6.70;78.60;;;;;;5077131;28;20104;-19
2022/11/21 02:49:10;;;;;;;17.25;10.98;;;6.70;78.70;;;;;;5076920;28;20021;-18
2022/11/21 02:51:36;;;;;;;19.05;11.77;;;6.70;78.70;;;;;;5076974;28;20411;-19
2022/11/21 02:54:02;;;;;;;19.40;10.77;;;6.70;78.70;;;;;;5075377;28;20048;-18
2022/11/21 02:56:28;;;;;;;17.20;11.15;;;6.70;78.90;;;;;;5075420;28;20024;-18
2022/11/21 02:58:54;;;;;;;17.85;11.20;;;6.70;78.80;;;;;;5076494;28;20132;-18
2022/11/21 03:01:20;;;;;;;18.38;10.13;;;6.80;78.90;;;;;;5076561;28;20484;-19
2022/11/21 03:03:46;;;;;;;16.10;10.25;;;6.80;78.90;;;;;;5076761;28;20104;-18
2022/11/21 03:06:11;;;;;;;12.45;8.75;;;6.70;78.80;;;;;;5076563;28;20375;-19
2022/11/21 03:08:37;;;;;;;18.00;11.55;;;6.70;78.70;;;;;;5076794;28;20429;-16
2022/11/21 03:11:04;;;;;;;14.95;9.93;;;6.70;78.80;;;;;;5076594;28;20063;-17
2022/11/21 03:13:30;;;;;;;18.50;12.05;;;6.60;78.60;;;;;;5076291;28;20025;-17
2022/11/21 03:15:56;;;;;;;15.40;9.80;;;6.50;78.70;;;;;;5076643;28;20024;-18
2022/11/21 03:18:21;;;;;;;13.38;8.35;;;6.40;78.80;;;;;;5076309;28;20017;-18
2022/11/21 03:20:48;;;;;;;16.50;10.35;;;6.30;78.90;;;;;;5076127;28;20025;-19
2022/11/21 03:23:14;;;;;;;14.90;9.52;;;6.20;79.00;;;;;;5076182;28;20052;-18
2022/11/21 03:25:39;;;;;;;11.65;6.95;;;6.20;79.10;;;;;;5076117;28;20059;-18
2022/11/21 03:28:06;;;;;;;14.20;9.15;;;6.10;79.10;;;;;;5076405;28;20044;-18
2022/11/21 03:30:32;;;;;;;14.68;9.40;;;6.10;79.20;;;;;;5076277;28;20066;-17
2022/11/21 03:32:58;;;;;;;16.10;10.02;;;6.10;79.30;;;;;;5075747;28;20433;-18
2022/11/21 03:35:24;;;;;;;17.58;10.48;;;6.10;79.20;;;;;;5076341;28;20507;-18
2022/11/21 03:37:50;;;;;;;15.93;10.68;;;5.90;79.20;;;;;;5075963;28;20032;-19
2022/11/21 03:40:16;;;;;;;13.55;9.45;;;5.90;79.10;;;;;;5075968;28;20114;-19
2022/11/21 03:42:42;;;;;;;13.43;8.88;;;5.70;79.10;;;;;;5075756;28;20555;-19
2022/11/21 03:45:08;;;;;;;16.15;10.48;;;5.60;79.50;;;;;;5075785;28;20021;-19
2022/11/21 03:47:35;;;;;;;15.98;10.18;;;5.60;79.60;;;;;;5076112;28;20029;-20
2022/11/21 03:50:01;;;;;;;18.45;11.65;;;5.40;79.50;;;;;;5076214;28;20032;-18
2022/11/21 03:52:27;;;;;;;18.05;9.65;;;5.30;79.50;;;;;;5075771;28;20032;-18
2022/11/21 03:54:53;;;;;;;18.67;11.55;;;5.20;79.60;;;;;;5075529;28;20020;-16
2022/11/21 03:57:19;;;;;;;15.27;9.85;;;5.10;79.80;;;;;;5075561;28;20106;-19
2022/11/21 03:59:45;;;;;;;16.55;9.65;;;5.00;79.90;;;;;;5075473;28;20044;-19
2022/11/21 04:02:10;;;;;;;15.38;9.43;;;4.90;80.10;;;;;;5075469;28;20484;-19
2022/11/21 04:04:37;;;;;;;15.13;8.45;;;4.90;80.20;;;;;;5075429;28;20031;-18
2022/11/21 04:07:03;;;;;;;13.27;8.13;;;4.90;80.20;;;;;;5075298;28;20032;-18
2022/11/21 04:09:29;;;;;;;14.10;9.18;;;4.90;80.40;;;;;;5075674;28;20032;-19
2022/11/21 04:11:54;;;;;;;14.38;10.00;;;4.90;80.30;;;;;;5075349;28;20024;-19
2022/11/21 04:14:21;;;;;;;12.25;7.60;;;4.80;80.40;;;;;;5075191;28;20097;-18
2022/11/21 04:16:46;;;;;;;15.52;8.85;;;4.80;80.30;;;;;;5075468;28;20016;-19
2022/11/21 04:19:12;;;;;;;14.98;9.65;;;4.70;80.40;;;;;;5074988;28;20430;-19
2022/11/21 04:21:38;;;;;;;15.10;8.85;;;4.70;80.40;;;;;;5075035;28;20048;-19
2022/11/21 04:24:05;;;;;;;16.35;10.30;;;4.60;80.40;;;;;;5075681;28;20074;-18
2022/11/21 04:26:31;;;;;;;11.45;7.50;;;4.60;80.50;;;;;;5074934;28;20511;-17
2022/11/21 04:28:57;;;;;;;15.38;9.45;;;4.50;80.30;;;;;;5075150;28;20025;-19
2022/11/21 04:31:23;;;;;;;17.05;11.85;;;4.50;80.40;;;;;;5074883;28;20032;-19
2022/11/21 04:33:49;;;;;;;13.88;8.73;;;4.40;80.50;;;;;;5074711;28;20025;-19
2022/11/21 04:36:14;;;;;;;17.60;10.57;;;4.40;80.50;;;;;;5074965;28;20033;-19
2022/11/21 04:38:40;;;;;;;15.80;10.02;;;4.40;80.50;;;;;;5074847;28;20056;-20
2022/11/21 04:41:06;;;;;;;16.02;10.38;;;4.30;80.50;;;;;;5074569;28;20036;-18
2022/11/21 04:43:32;;;;;;;16.33;10.38;;;4.20;80.50;;;;;;5075005;28;20027;-19
2022/11/21 04:45:58;;;;;;;20.13;12.13;;;4.10;80.70;;;;;;5074964;28;20072;-18
2022/11/21 04:48:24;;;;;;;17.90;12.25;;;4.10;80.80;;;;;;5075104;28;20024;-18
2022/11/21 04:50:50;;;;;;;21.50;12.35;;;4.10;80.90;;;;;;5074346;28;20116;-18
2022/11/21 04:53:16;;;;;;;18.23;11.15;;;4.10;80.90;;;;;;5074416;28;20036;-18
2022/11/21 04:55:43;;;;;;;18.58;11.02;;;4.10;80.90;;;;;;5074407;28;20032;-18
2022/11/21 04:58:08;;;;;;;14.82;9.65;;;4.00;81.00;;;;;;5074159;28;20017;-18
2022/11/21 05:00:34;;;;;;;14.20;8.63;;;4.00;81.00;;;;;;5074411;28;20472;-20
2022/11/21 05:03:02;;;;;;;15.82;9.30;;;4.00;80.90;;;;;;5074244;28;20013;-20
2022/11/21 05:05:28;;;;;;;21.52;11.52;;;3.90;80.90;;;;;;5074226;28;20029;-18
2022/11/21 05:07:55;;;;;;;22.85;11.82;;;3.90;80.90;;;;;;5074544;28;20046;-17
2022/11/21 05:10:20;;;;;;;15.82;8.80;;;3.90;80.90;;;;;;5074170;28;20472;-19
2022/11/21 05:15:30;;;;;;;;;;;3.80;81.10;;;;;;5074803;28;20043;-17
2022/11/21 05:17:59;;;;;;;13.10;6.80;;;3.70;81.10;;;;;;5074201;28;19904;-18
2022/11/21 05:20:25;;;;;;;16.00;9.40;;;3.70;81.10;;;;;;5073983;28;20029;-18
2022/11/21 05:22:52;;;;;;;18.50;11.20;;;3.60;81.10;;;;;;5073642;28;20115;-18
2022/11/21 05:25:18;;;;;;;22.70;12.43;;;3.60;81.30;;;;;;5073866;28;20029;-19
2022/11/21 05:27:44;;;;;;;19.25;12.18;;;3.60;81.20;;;;;;5074088;28;20017;-18
2022/11/21 05:30:11;;;;;;;20.77;11.75;;;3.60;81.30;;;;;;5074076;28;20032;-17
2022/11/21 05:32:37;;;;;;;26.05;13.88;;;3.60;81.20;;;;;;5073958;28;20027;-18
2022/11/21 05:35:03;;;;;;;18.15;10.43;;;3.50;81.20;;;;;;5072020;28;20388;-19
2022/11/21 05:37:29;;;;;;;14.52;8.35;;;3.50;81.30;;;;;;5073779;28;20031;-19
2022/11/21 05:39:55;;;;;;;17.70;9.38;;;3.50;81.30;;;;;;5073815;28;20032;-18
2022/11/21 05:43:44;;;;;;;16.38;9.80;;;3.50;81.20;;;;;;5073888;28;20017;-19
2022/11/21 05:45:07;;;;;;;20.63;13.18;;;3.50;81.20;;;;;;5073384;28;20032;-19
2022/11/21 05:47:33;;;;;;;19.80;11.73;;;3.40;81.30;;;;;;5073727;28;20034;-19
2022/11/21 05:49:59;;;;;;;21.02;11.38;;;3.40;81.30;;;;;;5073676;28;20099;-19
2022/11/21 05:52:27;;;;;;;15.20;8.48;;;3.40;81.30;;;;;;5072361;28;20048;-18
2022/11/21 05:54:53;;;;;;;19.92;11.50;;;3.40;81.20;;;;;;5073488;28;20055;-19
2022/11/21 05:57:19;;;;;;;16.92;10.73;;;3.40;81.20;;;;;;5073316;28;20484;-19
2022/11/21 05:59:45;;;;;;;17.30;11.05;;;3.40;81.20;;;;;;5073211;28;20041;-19
2022/11/21 06:04:55;;;;;;;;;;;3.40;81.20;;;;;;5073446;28;20124;-17
2022/11/21 06:07:20;;;;;;;13.93;7.60;;;3.30;81.20;;;;;;5071501;28;19936;-19
2022/11/21 06:09:47;;;;;;;16.02;10.68;;;3.30;81.20;;;;;;5073204;28;20033;-20
2022/11/21 06:12:13;;;;;;;17.00;10.20;;;3.20;81.20;;;;;;5073374;28;20028;-18
2022/11/21 06:14:38;;;;;;;19.40;11.75;;;3.10;81.10;;;;;;5073469;28;20114;-18
2022/11/21 06:17:04;;;;;;;26.98;15.25;;;3.10;81.10;;;;;;5072992;28;20539;-19
2022/11/21 06:19:30;;;;;;;25.48;13.88;;;3.00;81.10;;;;;;5073045;28;20035;-19
2022/11/21 06:21:56;;;;;;;19.17;12.50;;;3.00;81.20;;;;;;5073376;28;20107;-18
2022/11/21 06:24:23;;;;;;;21.35;12.38;;;2.90;81.30;;;;;;5073309;28;20451;-18
2022/11/21 06:26:48;;;;;;;22.25;11.55;;;2.90;81.40;;;;;;5073136;28;20048;-18
2022/11/21 06:29:15;;;;;;;17.67;10.70;;;2.90;81.50;;;;;;5072984;28;20484;-18
2022/11/21 06:31:41;;;;;;;17.27;11.15;;;2.90;81.60;;;;;;5072966;28;20040;-17
2022/11/21 06:34:07;;;;;;;23.65;12.50;;;2.90;81.60;;;;;;5072810;28;20024;-18
2022/11/21 06:36:34;;;;;;;24.33;13.52;;;2.90;81.60;;;;;;5073263;28;20082;-18
2022/11/21 06:39:00;;;;;;;26.00;14.98;;;2.90;81.70;;;;;;5072678;28;20052;-20
2022/11/21 06:41:29;;;;;;;28.95;15.95;;;2.90;81.70;;;;;;5073227;28;20055;-18
2022/11/21 06:43:59;;;;;;;23.25;12.40;;;2.90;81.60;;;;;;5073760;28;20107;-18
2022/11/21 06:46:25;;;;;;;27.05;15.13;;;2.90;81.70;;;;;;5072830;28;20017;-18
2022/11/21 06:48:52;;;;;;;22.70;12.43;;;2.90;81.80;;;;;;5072454;28;20023;-17
2022/11/21 06:51:21;;;;;;;18.30;11.60;;;2.90;81.80;;;;;;5072789;28;20396;-18
2022/11/21 06:53:54;;;;;;;15.98;10.10;;;3.00;81.60;;;;;;5072695;28;20029;-18
2022/11/21 06:56:21;;;;;;;21.67;12.88;;;3.00;81.70;;;;;;5072819;28;20079;-18
2022/11/21 06:58:47;;;;;;;18.30;10.95;;;3.00;81.80;;;;;;5072243;28;20057;-20
2022/11/21 07:01:13;;;;;;;20.25;12.00;;;3.10;81.70;;;;;;5073077;28;20020;-18
2022/11/21 07:03:39;;;;;;;25.60;14.10;;;3.20;81.70;;;;;;5072580;28;20021;-19
2022/11/21 07:06:05;;;;;;;18.10;12.18;;;3.30;82.20;;;;;;5073002;28;20025;-18
2022/11/21 07:08:36;;;;;;;15.93;10.00;;;3.40;81.90;;;;;;5072648;28;20472;-19
2022/11/21 07:11:08;;;;;;;20.05;11.77;;;3.40;81.70;;;;;;5072410;28;20024;-18
2022/11/21 07:13:35;;;;;;;27.10;15.25;;;3.50;81.80;;;;;;5072538;28;20480;-18
2022/11/21 07:16:06;;;;;;;27.33;14.43;;;3.60;81.70;;;;;;5072838;28;20166;-17
2022/11/21 07:18:32;;;;;;;43.97;24.90;;;3.60;81.70;;;;;;5074690;28;20439;-17
2022/11/21 07:20:59;;;;;;;26.10;16.85;;;3.60;81.80;;;;;;5076132;28;20480;-18
2022/11/21 07:23:26;;;;;;;39.20;22.33;;;3.70;82.20;;;;;;5075004;28;20020;-19
2022/11/21 07:25:53;;;;;;;33.17;20.17;;;3.80;82.20;;;;;;5076585;28;20040;-20
2022/11/21 07:28:19;;;;;;;53.30;29.83;;;3.90;82.20;;;;;;5076414;28;20055;-18
2022/11/21 07:30:45;;;;;;;44.58;23.88;;;4.00;81.90;;;;;;5076360;28;20103;-17
2022/11/21 07:33:11;;;;;;;44.05;24.63;;;4.10;81.40;;;;;;5075713;28;20020;-18
2022/11/21 07:35:37;;;;;;;34.33;21.17;;;4.20;81.30;;;;;;5076088;28;20032;-18
2022/11/21 07:38:03;;;;;;;33.67;19.38;;;4.30;81.20;;;;;;5074736;28;20035;-17
2022/11/21 07:40:33;;;;;;;33.95;22.02;;;4.40;81.70;;;;;;5076198;28;20384;-18
2022/11/21 07:43:04;;;;;;;27.52;15.55;;;4.40;82.10;;;;;;5075556;28;20025;-18
2022/11/21 07:45:30;;;;;;;26.42;16.35;;;4.50;81.50;;;;;;5075868;28;20031;-17
2022/11/21 07:47:57;;;;;;;29.77;16.83;;;4.60;80.90;;;;;;5075735;28;20028;-18
2022/11/21 07:50:23;;;;;;;30.38;18.23;;;4.60;80.70;;;;;;5075915;28;20036;-19
2022/11/21 07:52:49;;;;;;;37.15;21.52;;;4.70;81.00;;;;;;5075479;28;20112;-17
2022/11/21 07:55:15;;;;;;;31.75;17.60;;;4.80;81.70;;;;;;5075631;28;20115;-20
2022/11/21 07:57:41;;;;;;;33.70;18.52;;;4.90;82.10;;;;;;5075593;28;20040;-17
2022/11/21 08:00:08;;;;;;;37.88;19.50;;;5.00;80.80;;;;;;5074147;28;20080;-19
2022/11/21 08:02:34;;;;;;;29.17;18.98;;;5.10;80.60;;;;;;5075796;28;20146;-18
2022/11/21 08:04:59;;;;;;;37.25;17.85;;;5.20;80.80;;;;;;5075262;28;20060;-20
2022/11/21 08:07:25;;;;;;;28.48;18.75;;;5.30;80.60;;;;;;5075716;28;20025;-19
2022/11/21 08:09:51;;;;;;;30.70;17.58;;;5.50;82.60;;;;;;5075677;28;20093;-17
2022/11/21 08:12:17;;;;;;;31.52;18.15;;;5.60;83.80;;;;;;5075612;28;20105;-18
2022/11/21 08:14:42;;;;;;;33.50;18.10;;;5.70;83.20;;;;;;5075386;28;20039;-19
2022/11/21 08:17:08;;;;;;;27.50;17.23;;;5.70;83.30;;;;;;5075094;28;20028;-16
2022/11/21 08:19:34;;;;;;;26.25;15.93;;;5.90;83.50;;;;;;5075606;28;20051;-15
2022/11/21 08:22:00;;;;;;;29.80;16.50;;;5.90;83.30;;;;;;5075455;28;20031;-18
2022/11/21 08:24:26;;;;;;;32.30;17.30;;;6.10;83.30;;;;;;5075040;28;20111;-19
2022/11/21 08:26:53;;;;;;;28.73;16.52;;;6.20;81.20;;;;;;5075133;28;20025;-17
2022/11/21 08:29:18;;;;;;;24.75;13.93;;;6.30;82.30;;;;;;5074291;28;20032;-17
2022/11/21 08:31:44;;;;;;;21.83;13.60;;;6.40;82.20;;;;;;5074816;28;20027;-17
2022/11/21 08:34:11;;;;;;;22.73;13.63;;;6.60;81.30;;;;;;5075095;28;20035;-15
2022/11/21 08:36:37;;;;;;;21.70;13.23;;;6.80;80.10;;;;;;5074855;28;20032;-15
2022/11/21 08:39:03;;;;;;;21.13;13.18;;;7.00;79.50;;;;;;5074867;28;20032;-16
2022/11/21 08:44:14;;;;;;;24.20;13.02;;;7.40;79.00;;;;;;5075087;28;20119;-15
2022/11/21 08:46:39;;;;;;;21.88;13.35;;;7.70;78.30;;;;;;5074576;28;20032;-16
2022/11/21 08:49:07;;;;;;;25.85;14.35;;;7.90;77.90;;;;;;5074275;28;20078;-16
2022/11/21 08:51:33;;;;;;;24.63;14.55;;;8.20;77.80;;;;;;5074831;28;20028;-19
2022/11/21 08:54:00;;;;;;;23.27;14.05;;;8.50;77.50;;;;;;5074438;28;20077;-16
2022/11/21 08:56:26;;;;;;;22.00;13.20;;;8.70;77.10;;;;;;5074516;28;20106;-16
2022/11/21 08:58:52;;;;;;;20.17;12.60;;;8.90;76.90;;;;;;5074419;28;20051;-15
2022/11/21 09:01:18;;;;;;;22.27;12.95;;;9.10;76.80;;;;;;5074722;28;20024;-16
2022/11/21 09:03:44;;;;;;;23.75;13.93;;;9.40;76.30;;;;;;5074493;28;20036;-16
2022/11/21 09:06:11;;;;;;;20.42;12.90;;;9.60;76.40;;;;;;5074310;28;20029;-17
2022/11/21 09:08:37;;;;;;;20.52;13.38;;;9.80;76.10;;;;;;5074275;28;20025;-18
2022/11/21 09:11:08;;;;;;;20.83;13.43;;;10.10;75.90;;;;;;5073962;28;20030;-19
2022/11/21 09:13:34;;;;;;;26.13;15.25;;;10.40;75.70;;;;;;5074277;28;20033;-15
2022/11/21 09:18:46;;;;;;;20.55;14.35;;;10.90;74.80;;;;;;5074510;28;20067;-15
2022/11/21 09:21:16;;;;;;;22.38;14.65;;;11.20;74.50;;;;;;5074083;28;20032;-20
2022/11/21 09:23:42;;;;;;;26.17;15.45;;;11.40;74.10;;;;;;5074231;28;20111;-16
2022/11/21 09:26:08;;;;;;;21.63;13.88;;;11.60;73.40;;;;;;5073797;28;20033;-19
2022/11/21 09:28:37;;;;;;;23.40;14.63;;;11.60;73.20;;;;;;5073930;28;20111;-16
2022/11/21 09:31:04;;;;;;;19.88;13.02;;;11.70;73.40;;;;;;5073557;28;20064;-16
2022/11/21 09:33:30;;;;;;;20.42;14.15;;;11.90;73.40;;;;;;5074016;28;20108;-16
2022/11/21 09:36:00;;;;;;;20.38;12.93;;;12.10;73.20;;;;;;5073717;28;20032;-18
2022/11/21 09:38:26;;;;;;;20.17;14.27;;;12.30;72.20;;;;;;5073905;28;20029;-15
2022/11/21 09:44:33;;;;;;;18.75;13.30;;;12.50;71.80;;;;;;5073628;28;20031;-18
2022/11/21 09:47:15;;;;;;;18.50;11.90;;;12.60;72.30;;;;;;5057243;28;20480;-16
2022/11/21 09:49:46;;;;;;;16.48;11.80;;;12.70;71.70;;;;;;5073659;28;20025;-18
2022/11/21 09:52:14;;;;;;;14.93;10.70;;;12.80;70.70;;;;;;5073414;28;20387;-18
2022/11/21 09:54:48;;;;;;;13.88;9.32;;;12.80;70.40;;;;;;5073690;28;20024;-16
2022/11/21 09:57:18;;;;;;;13.90;9.40;;;12.80;70.70;;;;;;5073783;28;20078;-18
2022/11/21 09:59:45;;;;;;;13.20;9.05;;;12.90;70.00;;;;;;5071877;28;20079;-16
2022/11/21 10:02:16;;;;;;;17.13;10.05;;;13.10;70.00;;;;;;5073325;28;20020;-16
2022/11/21 10:04:44;;;;;;;14.27;9.07;;;13.50;69.70;;;;;;5073453;28;20059;-18
2022/11/21 10:07:16;;;;;;;12.82;9.20;;;13.90;67.60;;;;;;5073295;28;20074;-17
2022/11/21 10:10:02;;;;;;;12.95;8.63;;;14.10;65.80;;;;;;5073209;28;20036;-16
2022/11/21 10:12:43;;;;;;;10.77;7.70;;;14.10;66.30;;;;;;5073446;28;20043;-16
2022/11/21 10:15:56;;;;;;;10.52;7.28;;;14.20;66.20;;;;;;5073617;28;20032;-16
2022/11/21 10:18:43;;;;;;;12.35;8.55;;;14.40;64.30;;;;;;5050950;28;20025;-18
2022/11/21 10:21:15;;;;;;;10.98;7.57;;;14.70;64.00;;;;;;5073485;28;20028;-17
2022/11/21 10:23:50;;;;;;;9.13;6.32;;;14.70;63.70;;;;;;5071765;28;20032;-18
2022/11/21 10:26:38;;;;;;;12.00;7.18;;;14.90;64.20;;;;;;5073020;28;20103;-18
2022/11/21 10:29:19;;;;;;;9.05;5.70;;;15.20;62.90;;;;;;5073193;28;20025;-18
2022/11/21 10:31:46;;;;;;;11.60;6.93;;;15.50;62.60;;;;;;5073024;28;20037;-16
2022/11/21 10:34:16;;;;;;;10.73;6.75;;;15.60;61.80;;;;;;5073028;28;20551;-16
2022/11/21 10:36:47;;;;;;;11.43;7.57;;;15.80;61.40;;;;;;5073259;28;20029;-17
2022/11/21 10:39:38;;;;;;;12.55;7.50;;;15.90;60.80;;;;;;5073103;28;20094;-16
2022/11/21 10:42:55;;;;;;;9.65;6.55;;;16.00;59.70;;;;;;5068847;28;20036;-18
2022/11/21 10:45:22;;;;;;;9.07;6.72;;;16.20;59.20;;;;;;5050950;28;20110;-18
2022/11/21 10:47:50;;;;;;;11.93;6.95;;;16.50;59.00;;;;;;5050746;28;20033;-16
2022/11/21 10:50:34;;;;;;;7.85;5.90;;;16.60;58.40;;;;;;5050955;28;20100;-17
2022/11/21 10:56:18;;;;;;;9.03;5.53;;;17.10;57.50;;;;;;5054843;28;20055;-17
2022/11/21 10:58:48;;;;;;;8.65;6.55;;;17.30;56.30;;;;;;5037723;28;20733;-17
2022/11/21 11:01:31;;;;;;;8.50;6.00;;;17.60;55.00;;;;;;5054567;28;20505;-17
2022/11/21 11:04:10;;;;;;;9.90;6.43;;;17.90;52.70;;;;;;5054398;28;20087;-16
2022/11/21 11:06:41;;;;;;;8.48;5.55;;;18.30;53.50;;;;;;5054539;28;20037;-17
2022/11/21 11:09:23;;;;;;;8.23;5.60;;;18.50;52.60;;;;;;5054565;28;20052;-16
2022/11/21 11:11:49;;;;;;;7.43;5.50;;;18.80;51.30;;;;;;5054424;28;20499;-16
2022/11/21 11:14:31;;;;;;;8.63;6.05;;;19.00;50.70;;;;;;5054321;28;20033;-15
2022/11/21 11:16:58;;;;;;;6.63;4.70;;;19.20;50.30;;;;;;5054127;28;20044;-16
2022/11/21 11:19:28;;;;;;;8.23;5.22;;;19.30;50.30;;;;;;5054475;28;20552;-17
2022/11/21 11:21:55;;;;;;;8.93;5.80;;;19.30;50.10;;;;;;5074309;28;20043;-16
2022/11/21 11:24:26;;;;;;;9.35;6.50;;;19.40;49.30;;;;;;5076435;28;20491;-19
2022/11/21 11:27:02;;;;;;;7.68;5.10;;;19.40;44.30;;;;;;5075906;28;20036;-17
2022/11/21 11:29:30;;;;;;;7.28;4.72;;;19.50;48.40;;;;;;5076132;28;20127;-17
2022/11/21 11:32:04;;;;;;;7.32;5.32;;;19.70;48.40;;;;;;5076070;28;20113;-17
2022/11/21 11:34:46;;;;;;;7.68;5.10;;;19.70;48.80;;;;;;5076170;28;20048;-17
2022/11/21 11:37:25;;;;;;;8.25;5.63;;;19.90;48.70;;;;;;5074820;28;20027;-16
2022/11/21 11:40:14;;;;;;;6.53;4.45;;;19.90;47.50;;;;;;5074768;28;20400;-16
2022/11/21 11:48:40;;;;;;;9.98;5.85;;;20.30;46.70;;;;;;5076030;28;20388;-17
2022/11/21 11:51:22;;;;;;;10.60;6.38;;;20.40;47.10;;;;;;5075597;28;20467;-16
2022/11/21 11:53:52;;;;;;;9.95;7.20;;;20.50;45.40;;;;;;5075689;28;20040;-17
2022/11/21 11:56:24;;;;;;;9.70;6.22;;;20.60;45.80;;;;;;5075591;28;20090;-16
2022/11/21 11:59:03;;;;;;;12.20;7.13;;;20.60;45.00;;;;;;5075254;28;20496;-16
2022/11/21 12:01:43;;;;;;;11.68;7.20;;;20.60;44.30;;;;;;5075597;28;20032;-16
2022/11/21 12:04:16;;;;;;;10.18;6.53;;;20.50;43.10;;;;;;5074939;28;20044;-17
2022/11/21 12:07:02;;;;;;;11.05;7.07;;;20.40;44.40;;;;;;5075344;28;20384;-18
2022/11/21 12:09:57;;;;;;;10.35;6.45;;;20.40;44.40;;;;;;5075689;28;20427;-15
2022/11/21 12:12:35;;;;;;;12.63;7.93;;;20.40;44.90;;;;;;5074094;28;20028;-16
2022/11/21 12:18:14;;;;;;;14.38;8.93;;;19.60;45.20;;;;;;5075623;28;20028;-16
2022/11/21 12:21:08;;;;;;;14.10;7.88;;;19.10;46.70;;;;;;5075063;28;20036;-16
2022/11/21 12:23:47;;;;;;;10.00;6.68;;;18.60;46.40;;;;;;5075218;28;20021;-16
2022/11/21 12:26:19;;;;;;;12.13;8.38;;;18.50;49.10;;;;;;5075404;28;20077;-16
2022/11/21 12:29:00;;;;;;;13.75;8.07;;;18.50;47.90;;;;;;5073773;28;20392;-16
2022/11/21 12:31:50;;;;;;;11.35;8.00;;;18.60;47.00;;;;;;5075332;28;20033;-16
2022/11/21 12:34:31;;;;;;;13.65;7.72;;;18.70;45.70;;;;;;5075156;28;20031;-18
2022/11/21 12:37:05;;;;;;;11.95;8.00;;;18.80;45.80;;;;;;5074663;28;20442;-16
2022/11/21 12:40:19;;;;;;;12.05;8.15;;;19.00;45.80;;;;;;5075182;28;20033;-18
2022/11/21 12:43:02;;;;;;;15.02;10.20;;;19.20;45.50;;;;;;5070096;28;20081;-18
2022/11/21 12:45:33;;;;;;;17.08;11.48;;;19.40;44.60;;;;;;5075125;28;20048;-16
2022/11/21 12:56:56;;;;;;;14.63;9.05;;;18.90;44.60;;;;;;5074684;28;20399;-16
2022/11/21 12:59:24;;;;;;;13.70;8.95;;;18.60;46.60;;;;;;5074239;28;20557;-16
2022/11/21 13:01:59;;;;;;;12.90;8.38;;;18.70;46.90;;;;;;5074713;28;20024;-15
2022/11/21 13:04:32;;;;;;;13.00;8.40;;;18.80;47.20;;;;;;5074599;28;20044;-16
2022/11/21 13:07:00;;;;;;;15.15;9.10;;;18.90;47.20;;;;;;5074445;28;20107;-17
2022/11/21 13:09:29;;;;;;;16.17;9.82;;;19.00;46.80;;;;;;5074214;28;20396;-17
2022/11/21 13:12:25;;;;;;;14.80;9.85;;;18.90;46.80;;;;;;5074479;28;20100;-17
2022/11/21 13:15:04;;;;;;;15.98;9.93;;;18.90;46.70;;;;;;5074286;28;20098;-16
2022/11/21 13:17:53;;;;;;;15.13;9.57;;;18.90;46.10;;;;;;5073958;28;20028;-17
2022/11/21 13:20:26;;;;;;;20.67;11.38;;;18.70;45.20;;;;;;5073970;28;20034;-16
2022/11/21 13:22:54;;;;;;;;;;;18.00;46.50;;;;;;5074136;28;20104;-17
2022/11/21 13:25:31;;;;;;;13.50;8.52;;;17.60;47.90;;;;;;5073920;28;19954;-15
2022/11/21 13:28:12;;;;;;;14.27;8.88;;;17.20;49.00;;;;;;5073859;28;20032;-18